Time;durP1;ratioP1;P1;durP2;ratioP2;P2;SDS_P1;SDS_P2;PMS_P1;PMS_P2;Temp;Humidity;BMP_temperature;BMP_pressure;BME280_temperature;BME280_humidity;BME280_pressure;Samples;Min_cycle;Max_cycle;Signal;HPM_P1;HPM_P2
2022/05/02 00:00:33;;;;;;;5.55;2.53;;;332.90;2329.60;;;;;;5030855;28;20037;-54
2022/05/02 00:02:58;;;;;;;4.15;2.53;;;332.90;2329.60;;;;;;5030766;28;20021;-53
2022/05/02 00:05:24;;;;;;;3.10;2.25;;;332.90;2329.60;;;;;;5030671;28;20312;-54
2022/05/02 00:07:50;;;;;;;4.30;2.50;;;333.00;2329.60;;;;;;5030153;28;20396;-53
2022/05/02 00:10:16;;;;;;;3.20;1.88;;;333.00;2329.60;;;;;;5030953;28;20116;-54
2022/05/02 00:12:42;;;;;;;3.60;1.90;;;333.00;2329.60;;;;;;5030902;28;20028;-53
2022/05/02 00:15:08;;;;;;;3.33;1.75;;;333.00;2329.60;;;;;;5030515;28;20025;-55
2022/05/02 00:20:19;;;;;;;3.55;1.85;;;333.10;2329.60;;;;;;5030365;28;20037;-55
2022/05/02 00:22:47;;;;;;;4.80;2.10;;;333.30;2329.60;;;;;;5030548;28;20066;-55
2022/05/02 00:25:13;;;;;;;4.22;2.00;;;333.30;2329.60;;;;;;5030518;28;20480;-52
2022/05/02 00:27:40;;;;;;;4.10;2.33;;;333.20;2329.60;;;;;;5030486;28;20021;-54
2022/05/02 00:30:08;;;;;;;3.47;2.20;;;333.20;2329.60;;;;;;5030569;28;20032;-51
2022/05/02 00:32:34;;;;;;;4.38;2.22;;;333.20;2329.60;;;;;;5030529;28;20043;-53
2022/05/02 00:35:00;;;;;;;3.88;2.20;;;333.30;2329.60;;;;;;5030213;28;20471;-53
2022/05/02 00:37:26;;;;;;;6.15;3.85;;;333.40;2329.60;;;;;;5030302;28;20025;-53
2022/05/02 00:39:52;;;;;;;5.28;3.17;;;333.30;2329.60;;;;;;5030131;28;20061;-52
2022/05/02 00:42:20;;;;;;;4.25;2.40;;;333.30;2329.60;;;;;;5030249;28;20025;-52
2022/05/02 00:44:46;;;;;;;7.40;2.90;;;333.40;2329.60;;;;;;5030369;28;20025;-52
2022/05/02 00:47:15;;;;;;;5.10;2.80;;;333.40;2329.60;;;;;;5030263;28;20083;-52
2022/05/02 00:49:42;;;;;;;3.67;2.45;;;333.50;2329.60;;;;;;5029876;28;20045;-53
2022/05/02 00:52:08;;;;;;;10.27;4.93;;;333.30;2329.60;;;;;;5029296;28;20029;-53
2022/05/02 00:54:37;;;;;;;6.88;3.88;;;333.10;2329.60;;;;;;5030047;28;20404;-53
2022/05/02 00:57:05;;;;;;;7.68;2.70;;;333.10;2329.60;;;;;;5030093;28;20452;-53
2022/05/02 00:59:32;;;;;;;4.05;2.20;;;333.20;2329.60;;;;;;5029844;28;20026;-54
2022/05/02 01:01:58;;;;;;;4.68;2.20;;;333.10;2329.60;;;;;;5029715;28;20460;-53
2022/05/02 01:04:24;;;;;;;6.50;3.20;;;333.10;2329.60;;;;;;5029888;28;20044;-53
2022/05/02 01:09:34;;;;;;;4.28;2.33;;;333.00;2329.60;;;;;;5030832;28;20049;-53
2022/05/02 01:12:01;;;;;;;3.50;2.03;;;333.00;2329.60;;;;;;5049174;28;20028;-53
2022/05/02 01:14:27;;;;;;;3.80;2.25;;;332.90;2329.60;;;;;;5049270;28;20029;-52
2022/05/02 01:16:53;;;;;;;4.53;2.38;;;332.90;2329.60;;;;;;5048788;28;20051;-53
2022/05/02 01:19:19;;;;;;;3.30;2.20;;;332.90;2329.60;;;;;;5048734;28;20091;-53
2022/05/02 01:21:45;;;;;;;4.57;2.40;;;332.80;2329.60;;;;;;5048583;28;20023;-53
2022/05/02 01:24:11;;;;;;;4.05;2.13;;;332.80;2329.60;;;;;;5048760;28;20017;-53
2022/05/02 01:26:37;;;;;;;4.20;2.42;;;308.10;2304.00;;;;;;5038972;28;20263;-52
2022/05/02 01:29:04;;;;;;;3.65;2.00;;;308.10;2304.00;;;;;;5040100;28;20051;-53
2022/05/02 01:31:30;;;;;;;4.68;2.22;;;308.00;2304.00;;;;;;5049711;28;20075;-54
2022/05/02 01:33:56;;;;;;;2.72;1.88;;;308.00;2304.00;;;;;;5049767;28;20032;-53
2022/05/02 01:36:23;;;;;;;3.92;2.92;;;308.00;2304.00;;;;;;5049166;28;20025;-53
2022/05/02 01:38:50;;;;;;;4.18;1.90;;;308.10;2304.00;;;;;;5049447;28;20029;-53
2022/05/02 01:41:16;;;;;;;3.33;1.80;;;308.00;2304.00;;;;;;5049835;28;20475;-54
2022/05/02 01:43:43;;;;;;;3.88;1.98;;;308.10;2304.00;;;;;;5049908;28;20040;-54
2022/05/02 01:46:11;;;;;;;2.90;1.90;;;308.00;2304.00;;;;;;5049406;28;20028;-54
2022/05/02 01:48:37;;;;;;;2.78;1.58;;;308.00;2304.00;;;;;;5049528;28;20125;-53
2022/05/02 01:51:03;;;;;;;2.17;1.70;;;308.00;2304.00;;;;;;5049606;28;20103;-54
2022/05/02 01:53:29;;;;;;;4.00;1.60;;;307.90;2304.00;;;;;;5049200;28;20036;-53
2022/05/02 01:55:55;;;;;;;3.72;2.03;;;308.00;2304.00;;;;;;5049327;28;20046;-53
2022/05/02 01:58:22;;;;;;;3.83;1.85;;;308.00;2304.00;;;;;;5049184;28;20033;-54
2022/05/02 02:00:48;;;;;;;5.82;2.30;;;308.00;2304.00;;;;;;5049228;28;20021;-54
2022/05/02 02:03:14;;;;;;;3.22;2.40;;;308.00;2304.00;;;;;;5050747;28;20037;-54
2022/05/02 02:05:48;;;;;;;2.50;1.55;;;308.10;2304.00;;;;;;5052678;28;20021;-54
2022/05/02 02:08:31;;;;;;;3.00;2.10;;;308.10;2304.00;;;;;;5052583;28;20053;-54
2022/05/02 02:11:08;;;;;;;3.45;1.80;;;308.10;2304.00;;;;;;5052520;28;20024;-55
2022/05/02 02:13:35;;;;;;;3.00;1.60;;;308.00;2304.00;;;;;;5052794;28;20033;-53
2022/05/02 02:16:01;;;;;;;2.55;1.50;;;308.10;2304.00;;;;;;5052715;28;20029;-53
2022/05/02 02:18:27;;;;;;;2.30;1.50;;;308.10;2304.00;;;;;;5052879;28;20025;-52
2022/05/02 02:20:55;;;;;;;2.70;1.48;;;308.10;2304.00;;;;;;5052771;28;20031;-54
2022/05/02 02:23:22;;;;;;;3.25;1.98;;;308.10;2304.00;;;;;;5052702;28;20072;-54
2022/05/02 02:25:48;;;;;;;2.55;1.45;;;332.80;2329.60;;;;;;5052393;28;20025;-54
2022/05/02 02:28:16;;;;;;;8.15;3.70;;;332.80;2329.60;;;;;;5052770;28;20395;-54
2022/05/02 02:30:44;;;;;;;6.35;3.25;;;308.10;2304.00;;;;;;5052485;28;20013;-54
2022/05/02 02:33:09;;;;;;;4.18;2.63;;;308.00;2304.00;;;;;;5052364;28;20033;-52
2022/05/02 02:35:35;;;;;;;4.30;2.45;;;308.00;2304.00;;;;;;5052560;28;20471;-54
2022/05/02 02:38:02;;;;;;;4.88;2.60;;;308.10;2304.00;;;;;;5052064;28;20018;-54
2022/05/02 02:40:29;;;;;;;3.40;1.98;;;308.10;2304.00;;;;;;5052215;28;20037;-55
2022/05/02 02:42:54;;;;;;;3.83;2.50;;;308.10;2304.00;;;;;;5052529;28;20430;-53
2022/05/02 02:45:20;;;;;;;7.13;3.65;;;308.10;2304.00;;;;;;5052070;28;20032;-54
2022/05/02 02:47:46;;;;;;;5.40;2.72;;;308.10;2304.00;;;;;;5052302;28;20437;-54
2022/05/02 02:50:12;;;;;;;5.60;2.08;;;332.80;2329.60;;;;;;5052012;28;20061;-53
2022/05/02 02:52:38;;;;;;;3.67;2.17;;;308.10;2304.00;;;;;;5052025;28;20089;-55
2022/05/02 02:55:05;;;;;;;6.20;2.28;;;308.10;2304.00;;;;;;5052350;28;20433;-53
2022/05/02 02:57:30;;;;;;;2.47;1.90;;;308.10;2304.00;;;;;;5051796;28;20087;-54
2022/05/02 02:59:56;;;;;;;2.88;1.92;;;332.80;2329.60;;;;;;5052032;28;20029;-54
2022/05/02 03:02:22;;;;;;;2.42;1.58;;;332.80;2329.60;;;;;;5051632;28;20024;-54
2022/05/02 03:07:33;;;;;;;4.20;2.50;;;308.10;2304.00;;;;;;5051620;28;20048;-54
2022/05/02 03:09:59;;;;;;;6.97;3.42;;;308.10;2304.00;;;;;;5051617;28;20025;-54
2022/05/02 03:12:25;;;;;;;4.72;2.47;;;332.80;2329.60;;;;;;5051876;28;20025;-54
2022/05/02 03:14:51;;;;;;;3.65;1.98;;;332.80;2329.60;;;;;;5050931;28;20021;-54
2022/05/02 03:17:17;;;;;;;3.75;2.05;;;332.80;2329.60;;;;;;5051724;28;20027;-54
2022/05/02 03:19:43;;;;;;;4.45;2.20;;;332.90;2329.60;;;;;;5051849;28;20102;-54
2022/05/02 03:22:09;;;;;;;3.70;2.13;;;332.80;2329.60;;;;;;5051419;28;20025;-53
2022/05/02 03:24:35;;;;;;;3.22;1.98;;;332.90;2329.60;;;;;;5051329;28;20434;-54
2022/05/02 03:27:00;;;;;;;4.03;2.10;;;332.90;2329.60;;;;;;5051296;28;20024;-54
2022/05/02 03:29:26;;;;;;;3.63;2.05;;;332.90;2329.60;;;;;;5051204;28;20087;-52
2022/05/02 03:31:52;;;;;;;3.20;2.30;;;332.90;2329.60;;;;;;5051255;28;20017;-54
2022/05/02 03:34:18;;;;;;;5.40;2.58;;;332.90;2329.60;;;;;;5051156;28;20514;-55
2022/05/02 03:36:44;;;;;;;5.10;2.50;;;333.00;2329.60;;;;;;5051296;28;20032;-56
2022/05/02 03:39:10;;;;;;;3.30;1.77;;;333.10;2329.60;;;;;;5051288;28;20110;-54
2022/05/02 03:41:35;;;;;;;2.80;1.80;;;333.10;2329.60;;;;;;5051067;28;20052;-54
2022/05/02 03:44:01;;;;;;;3.50;2.08;;;332.90;2329.60;;;;;;5050965;28;20025;-54
2022/05/02 03:46:27;;;;;;;3.33;1.83;;;332.90;2329.60;;;;;;5051074;28;20383;-54
2022/05/02 03:48:54;;;;;;;3.50;2.47;;;332.90;2329.60;;;;;;5050895;28;20116;-54
2022/05/02 03:51:20;;;;;;;4.88;2.28;;;333.00;2329.60;;;;;;5050760;28;20029;-54
2022/05/02 03:53:45;;;;;;;3.88;2.40;;;333.10;2329.60;;;;;;5050920;28;20028;-55
2022/05/02 03:56:12;;;;;;;4.72;2.30;;;333.10;2329.60;;;;;;5050901;28;20021;-54
2022/05/02 03:58:38;;;;;;;4.53;2.80;;;333.10;2329.60;;;;;;5050671;28;20434;-55
2022/05/02 04:01:04;;;;;;;5.15;2.55;;;333.20;2329.60;;;;;;5050815;28;20033;-53
2022/05/02 04:03:29;;;;;;;5.03;2.40;;;333.40;2329.60;;;;;;5050514;28;20049;-54
2022/05/02 04:05:55;;;;;;;3.65;2.28;;;333.40;2329.60;;;;;;5050766;28;20407;-54
2022/05/02 04:08:21;;;;;;;3.55;1.90;;;333.50;2329.60;;;;;;5050137;28;20530;-54
2022/05/02 04:10:46;;;;;;;4.72;2.20;;;333.60;2329.60;;;;;;5050714;28;20032;-54
2022/05/02 04:13:12;;;;;;;3.75;2.35;;;333.70;2329.60;;;;;;5050691;28;20375;-53
2022/05/02 04:15:38;;;;;;;3.17;2.10;;;358.40;2329.60;;;;;;5050513;28;20028;-55
2022/05/02 04:18:04;;;;;;;5.03;1.95;;;358.50;2329.60;;;;;;5050510;28;20549;-54
2022/05/02 04:20:30;;;;;;;3.58;2.05;;;358.60;2329.60;;;;;;5050281;28;20049;-54
2022/05/02 04:22:55;;;;;;;5.97;2.60;;;358.70;2329.60;;;;;;5050595;28;20107;-54
2022/05/02 04:25:21;;;;;;;4.82;2.33;;;358.80;2329.60;;;;;;5050286;28;20128;-54
2022/05/02 04:27:47;;;;;;;4.32;2.15;;;358.80;2329.60;;;;;;5050411;28;20040;-55
2022/05/02 04:30:13;;;;;;;3.47;2.58;;;358.90;2329.60;;;;;;5050603;28;20053;-53
2022/05/02 04:32:39;;;;;;;3.28;2.25;;;358.90;2329.60;;;;;;5050152;28;20070;-54
2022/05/02 04:35:06;;;;;;;5.18;2.53;;;359.00;2329.60;;;;;;5050135;28;20029;-54
2022/05/02 04:37:31;;;;;;;5.03;2.33;;;359.00;2329.60;;;;;;5031756;28;20033;-54
2022/05/02 04:39:57;;;;;;;4.32;2.40;;;384.00;2329.60;;;;;;5050172;28;20035;-54
2022/05/02 04:42:23;;;;;;;2.95;2.08;;;384.00;2329.60;;;;;;5050256;28;20029;-55
2022/05/02 04:44:49;;;;;;;4.65;2.88;;;384.00;2329.60;;;;;;5050009;28;20021;-55
2022/05/02 04:47:15;;;;;;;4.63;2.30;;;384.00;2329.60;;;;;;5050209;28;20495;-54
2022/05/02 04:49:41;;;;;;;4.63;2.70;;;384.10;2329.60;;;;;;5049841;28;20498;-54
2022/05/02 04:52:07;;;;;;;4.13;2.75;;;384.30;2329.60;;;;;;5050183;28;21085;-54
2022/05/02 04:54:33;;;;;;;3.85;2.13;;;384.50;2329.60;;;;;;5050136;28;20036;-54
2022/05/02 04:56:59;;;;;;;4.32;2.90;;;384.50;2329.60;;;;;;5049770;28;20380;-54
2022/05/02 04:59:25;;;;;;;5.45;2.60;;;384.60;2329.60;;;;;;5049900;28;20025;-54
2022/05/02 05:01:51;;;;;;;3.85;2.25;;;384.70;2329.60;;;;;;5049821;28;20029;-54
2022/05/02 05:04:17;;;;;;;3.92;2.38;;;384.80;2329.60;;;;;;5049778;28;20028;-55
2022/05/02 05:06:43;;;;;;;4.68;2.70;;;384.90;2329.60;;;;;;5031497;28;20045;-54
2022/05/02 05:09:09;;;;;;;3.78;2.58;;;409.60;2355.20;;;;;;5049488;28;20051;-55
2022/05/02 05:12:10;;;;;;;5.07;3.13;;;410.00;2355.20;;;;;;5049731;28;20021;-53
2022/05/02 05:18:12;;;;;;;4.85;3.00;;;435.30;2329.60;;;;;;4969145;28;20516;-53
2022/05/02 05:20:50;;;;;;;4.05;2.92;;;436.10;2355.20;;;;;;4968707;28;20101;-55
2022/05/02 05:23:52;;;;;;;5.00;3.53;;;461.00;2150.40;;;;;;4968624;28;20027;-55
2022/05/02 05:26:46;;;;;;;6.57;4.00;;;461.20;2048.00;;;;;;4968748;28;20031;-56
2022/05/02 05:29:11;;;;;;;;;;;512.20;1766.40;;;;;;4969245;28;20082;-54
2022/05/02 05:31:40;;;;;;;6.45;3.35;;;538.20;1689.60;;;;;;4969055;28;19911;-54
2022/05/02 05:34:21;;;;;;;7.00;3.92;;;563.60;1638.40;;;;;;4968928;28;20381;-54
2022/05/02 05:37:17;;;;;;;5.55;3.97;;;564.10;1612.80;;;;;;4968950;28;20035;-55
2022/05/02 05:39:54;;;;;;;7.53;5.50;;;589.70;1510.40;;;;;;4972704;28;20035;-55
2022/05/02 05:42:45;;;;;;;7.22;5.85;;;589.30;1510.40;;;;;;4972463;28;20172;-55
2022/05/02 05:45:26;;;;;;;7.18;5.10;;;589.00;1536.00;;;;;;4953147;29;20083;-55
2022/05/02 05:48:28;;;;;;;8.23;5.70;;;589.50;1510.40;;;;;;4952911;29;20478;-55
2022/05/02 05:51:38;;;;;;;7.97;6.22;;;614.70;1484.80;;;;;;4979645;28;20531;-56
2022/05/02 05:54:41;;;;;;;9.40;6.65;;;640.10;1433.60;;;;;;5001121;28;20555;-56
2022/05/02 05:57:35;;;;;;;9.45;6.57;;;563.80;1587.20;;;;;;5011401;28;20546;-55
2022/05/02 06:00:13;;;;;;;8.13;5.15;;;538.10;1638.40;;;;;;5010914;28;20034;-54
2022/05/02 06:03:04;;;;;;;7.97;4.78;;;512.80;1638.40;;;;;;5011038;28;20034;-55
2022/05/02 06:05:37;;;;;;;4.13;3.08;;;538.10;1612.80;;;;;;5010890;28;20034;-55
2022/05/02 06:08:09;;;;;;;6.32;3.88;;;564.10;1484.80;;;;;;5010643;28;20428;-55
2022/05/02 06:10:35;;;;;;;4.25;3.25;;;614.80;1408.00;;;;;;5010851;28;20026;-55
2022/05/02 06:13:02;;;;;;;5.18;3.70;;;666.00;1280.00;;;;;;5010854;28;20026;-56
2022/05/02 06:18:30;;;;;;;5.15;4.40;;;742.60;1177.60;;;;;;5011473;28;20080;-55
2022/05/02 06:21:03;;;;;;;6.05;3.90;;;742.60;1177.60;;;;;;5010928;28;20030;-56
2022/05/02 06:23:41;;;;;;;5.10;3.78;;;768.40;1100.80;;;;;;5052478;28;20057;-55
2022/05/02 06:26:08;;;;;;;4.97;4.47;;;742.90;1126.40;;;;;;5052578;28;20036;-56
2022/05/02 06:28:41;;;;;;;5.28;4.53;;;742.90;1152.00;;;;;;5052407;28;20487;-55
2022/05/02 06:31:15;;;;;;;5.55;4.95;;;768.80;1075.20;;;;;;5052372;28;20530;-57
2022/05/02 06:33:44;;;;;;;7.25;5.55;;;794.40;1075.20;;;;;;5052321;28;20484;-56
2022/05/02 06:36:16;;;;;;;6.78;5.25;;;819.80;1049.60;;;;;;5052353;28;20041;-58
2022/05/02 06:38:54;;;;;;;8.38;5.00;;;768.70;1075.20;;;;;;5052111;28;20060;-57
2022/05/02 06:41:33;;;;;;;9.45;6.10;;;717.10;1177.60;;;;;;5052234;28;20108;-56
2022/05/02 06:44:30;;;;;;;6.93;4.82;;;742.80;1177.60;;;;;;5052318;28;20092;-57
2022/05/02 06:47:23;;;;;;;4.88;4.38;;;742.90;1177.60;;;;;;5052131;28;20024;-55
2022/05/02 06:49:54;;;;;;;4.22;3.50;;;742.90;1126.40;;;;;;5050581;28;20033;-56
2022/05/02 06:52:25;;;;;;;4.25;3.85;;;768.20;1100.80;;;;;;5051887;28;20029;-55
2022/05/02 06:55:22;;;;;;;4.88;4.43;;;768.00;1126.40;;;;;;5051755;28;20032;-56
2022/05/02 06:58:02;;;;;;;5.20;4.70;;;768.60;1075.20;;;;;;5051777;28;20035;-59
2022/05/02 07:00:39;;;;;;;5.75;5.07;;;794.50;1075.20;;;;;;5045354;28;20036;-58
2022/05/02 07:03:10;;;;;;;5.22;4.72;;;819.20;1049.60;;;;;;5047881;28;20029;-56
2022/05/02 07:06:01;;;;;;;5.05;3.75;;;819.70;1024.00;;;;;;5051573;28;20021;-56
2022/05/02 07:08:28;;;;;;;5.05;3.83;;;768.00;1100.80;;;;;;5051433;28;20049;-56
2022/05/02 07:11:04;;;;;;;5.38;4.57;;;794.50;1049.60;;;;;;5051806;28;20021;-57
2022/05/02 07:14:10;;;;;;;5.07;3.65;;;819.30;1075.20;;;;;;5051477;28;20028;-57
2022/05/02 07:16:44;;;;;;;32.22;25.27;;;742.60;1152.00;;;;;;5051621;28;20471;-56
2022/05/02 07:19:52;;;;;;;5.88;4.25;;;717.50;1152.00;;;;;;5051557;28;20025;-55
2022/05/02 07:22:34;;;;;;;4.28;3.35;;;666.10;1228.80;;;;;;4970854;28;20046;-55
2022/05/02 07:25:08;;;;;;;4.30;2.90;;;666.30;1203.20;;;;;;4988755;28;20054;-56
2022/05/02 07:27:58;;;;;;;5.53;2.95;;;717.10;1152.00;;;;;;4990271;28;20050;-56
2022/05/02 07:30:24;;;;;;;5.50;3.63;;;666.50;1203.20;;;;;;4990270;28;20117;-55
2022/05/02 07:32:53;;;;;;;4.45;3.78;;;692.10;1152.00;;;;;;4990042;28;20034;-55
2022/05/02 07:35:21;;;;;;;5.28;3.35;;;691.40;1203.20;;;;;;4989873;28;20072;-54
2022/05/02 07:37:47;;;;;;;4.70;3.20;;;665.60;1280.00;;;;;;4989922;28;20485;-54
2022/05/02 07:40:17;;;;;;;3.70;3.10;;;665.90;1280.00;;;;;;4989905;28;20092;-55
2022/05/02 07:42:44;;;;;;;3.85;2.70;;;640.70;1254.40;;;;;;4990145;28;20596;-53
2022/05/02 07:45:10;;;;;;;2.97;2.30;;;615.20;1305.60;;;;;;4989796;28;20034;-55
2022/05/02 07:47:40;;;;;;;3.72;2.67;;;615.30;1305.60;;;;;;4989868;28;20614;-54
2022/05/02 07:50:06;;;;;;;4.35;2.70;;;615.00;1331.20;;;;;;4987217;28;20067;-54
2022/05/02 07:52:36;;;;;;;3.95;2.53;;;589.70;1356.80;;;;;;4987476;28;20122;-54
2022/05/02 07:55:03;;;;;;;4.93;3.20;;;614.50;1356.80;;;;;;4987561;28;20074;-55
2022/05/02 07:57:33;;;;;;;4.80;2.72;;;614.60;1356.80;;;;;;4987527;28;20076;-55
2022/05/02 08:00:00;;;;;;;3.85;2.40;;;614.50;1356.80;;;;;;5044278;28;20251;-55
2022/05/02 08:02:26;;;;;;;3.17;2.47;;;615.00;1331.20;;;;;;5048586;28;20025;-55
2022/05/02 08:04:53;;;;;;;4.38;2.60;;;615.10;1331.20;;;;;;5049026;28;20029;-54
2022/05/02 08:07:24;;;;;;;4.05;2.63;;;615.00;1382.40;;;;;;5048717;28;20057;-55
2022/05/02 08:10:08;;;;;;;3.75;2.50;;;614.80;1459.20;;;;;;5048607;28;20044;-54
2022/05/02 08:12:44;;;;;;;3.78;2.80;;;614.90;1408.00;;;;;;5049167;28;20025;-54
2022/05/02 08:15:34;;;;;;;4.07;2.53;;;614.80;1331.20;;;;;;5048365;28;20025;-55
2022/05/02 08:18:23;;;;;;;3.38;2.45;;;589.70;1356.80;;;;;;5036527;28;20107;-55
2022/05/02 08:20:56;;;;;;;4.22;2.65;;;589.70;1408.00;;;;;;5038594;28;20107;-56
2022/05/02 08:29:53;;;;;;;6.22;2.85;;;589.70;1382.40;;;;;;4983496;28;20141;-54
2022/05/02 08:32:23;;;;;;;4.57;2.90;;;589.20;1408.00;;;;;;4986883;28;20034;-56
2022/05/02 08:35:03;;;;;;;3.75;2.67;;;589.10;1433.60;;;;;;4986833;28;20034;-55
2022/05/02 08:37:47;;;;;;;4.88;3.53;;;589.00;1459.20;;;;;;4986787;28;20022;-61
2022/05/02 08:40:24;;;;;;;3.60;2.63;;;564.10;1433.60;;;;;;4986851;28;20049;-60
2022/05/02 08:43:40;;;;;;;2.90;1.92;;;563.70;1382.40;;;;;;4986342;28;20038;-60
2022/05/02 08:46:40;;;;;;;3.60;2.75;;;563.50;1382.40;;;;;;4948197;29;20036;-60
2022/05/02 08:49:33;;;;;;;2.42;1.83;;;563.30;1408.00;;;;;;4948199;29;20059;-61
2022/05/02 08:52:14;;;;;;;4.68;2.45;;;563.80;1382.40;;;;;;4948155;29;20524;-59
2022/05/02 08:54:39;;;;;;;4.15;2.38;;;563.90;1382.40;;;;;;4947605;29;20118;-61
2022/05/02 08:57:20;;;;;;;3.58;2.35;;;564.10;1382.40;;;;;;4948106;29;20114;-61
2022/05/02 09:00:06;;;;;;;5.53;2.88;;;564.00;1382.40;;;;;;4948021;29;20550;-59
2022/05/02 09:02:41;;;;;;;2.72;1.98;;;564.10;1356.80;;;;;;4947872;29;20484;-58
2022/05/02 09:05:27;;;;;;;3.65;2.58;;;588.80;1356.80;;;;;;4949174;28;20035;-63
2022/05/02 09:08:07;;;;;;;4.75;2.78;;;589.20;1331.20;;;;;;4966673;28;20054;-63
2022/05/02 09:10:51;;;;;;;6.88;4.05;;;589.40;1331.20;;;;;;4967270;28;20720;-60
2022/05/02 09:13:43;;;;;;;3.00;2.30;;;614.50;1331.20;;;;;;4968820;28;20022;-57
2022/05/02 09:16:12;;;;;;;3.90;2.50;;;589.40;1305.60;;;;;;4956346;28;20516;-59
2022/05/02 09:18:56;;;;;;;4.60;2.47;;;589.60;1305.60;;;;;;4970852;28;20031;-57
2022/05/02 09:21:53;;;;;;;3.15;2.00;;;589.60;1305.60;;;;;;4970570;28;20045;-59
2022/05/02 09:24:31;;;;;;;3.72;2.63;;;589.00;1356.80;;;;;;5032018;28;20048;-57
2022/05/02 09:27:24;;;;;;;3.15;2.28;;;589.10;1305.60;;;;;;5031913;28;20025;-57
2022/05/02 09:30:04;;;;;;;3.45;2.35;;;589.50;1305.60;;;;;;5008984;28;20041;-58
2022/05/02 09:32:45;;;;;;;4.20;2.70;;;589.70;1305.60;;;;;;5031959;28;20522;-62
2022/05/02 09:35:21;;;;;;;3.60;2.53;;;589.40;1331.20;;;;;;5031462;28;20029;-63
2022/05/02 09:37:56;;;;;;;5.13;2.60;;;589.20;1331.20;;;;;;5032023;28;20053;-62
2022/05/02 09:40:43;;;;;;;3.72;2.30;;;589.30;1331.20;;;;;;5013771;28;20507;-59
2022/05/02 09:49:51;;;;;;;3.05;2.13;;;564.00;1331.20;;;;;;5031674;28;20496;-58
2022/05/02 09:52:29;;;;;;;3.90;2.40;;;588.80;1356.80;;;;;;5031838;28;20049;-57
2022/05/02 09:58:00;;;;;;;3.17;2.22;;;589.10;1331.20;;;;;;5031801;28;20056;-60
2022/05/02 10:03:23;;;;;;;4.53;2.30;;;563.90;1331.20;;;;;;5031541;28;20075;-56
2022/05/02 10:06:13;;;;;;;4.57;2.55;;;588.90;1331.20;;;;;;5031346;28;20037;-59
2022/05/02 10:09:04;;;;;;;2.97;2.13;;;564.10;1331.20;;;;;;5031056;28;20106;-62
2022/05/02 10:11:48;;;;;;;3.10;2.03;;;589.20;1305.60;;;;;;5031481;28;20037;-56
2022/05/02 10:14:19;;;;;;;3.25;2.10;;;588.80;1331.20;;;;;;5012934;28;20479;-66
2022/05/02 10:17:07;;;;;;;3.15;1.80;;;589.10;1305.60;;;;;;5031412;28;20021;-58
2022/05/02 10:19:46;;;;;;;3.58;1.95;;;588.80;1305.60;;;;;;5031379;28;20032;-61
2022/05/02 10:22:23;;;;;;;4.10;1.98;;;589.00;1305.60;;;;;;5031176;28;20362;-60
2022/05/02 10:25:13;;;;;;;2.95;2.10;;;589.10;1305.60;;;;;;5030864;28;20025;-63
2022/05/02 10:27:46;;;;;;;2.60;1.92;;;589.20;1305.60;;;;;;5030542;28;20041;-62
2022/05/02 10:30:13;;;;;;;2.92;1.85;;;588.80;1331.20;;;;;;5030728;28;20033;-65
2022/05/02 10:32:53;;;;;;;3.42;2.22;;;589.00;1305.60;;;;;;5031010;28;20491;-63
2022/05/02 10:35:21;;;;;;;4.35;2.33;;;589.70;1280.00;;;;;;5030940;28;20501;-57
2022/05/02 10:38:04;;;;;;;3.40;2.72;;;589.50;1280.00;;;;;;5031058;28;20036;-62
2022/05/02 10:40:44;;;;;;;3.53;2.72;;;589.70;1280.00;;;;;;5030211;28;20430;-55
2022/05/02 10:43:16;;;;;;;3.28;1.77;;;614.60;1280.00;;;;;;5030709;28;20022;-61
2022/05/02 10:45:43;;;;;;;2.80;1.90;;;614.50;1254.40;;;;;;5031616;28;20606;-63
2022/05/02 10:48:11;;;;;;;5.00;3.58;;;614.60;1305.60;;;;;;5032446;28;20491;-64
2022/05/02 10:50:37;;;;;;;3.70;2.00;;;614.70;1228.80;;;;;;5032496;28;20041;-57
2022/05/02 10:53:40;;;;;;;6.95;4.68;;;589.70;1228.80;;;;;;5032197;28;20083;-60
2022/05/02 10:56:35;;;;;;;4.77;3.37;;;589.70;1228.80;;;;;;5032378;28;20435;-63
2022/05/02 10:59:04;;;;;;;3.13;2.10;;;614.60;1203.20;;;;;;5031836;28;20033;-64
2022/05/02 11:01:36;;;;;;;2.47;1.85;;;589.70;1203.20;;;;;;5031799;28;20029;-60
2022/05/02 11:04:38;;;;;;;3.28;2.17;;;589.70;1203.20;;;;;;5031968;28;20364;-57
2022/05/02 11:07:19;;;;;;;3.60;2.10;;;614.50;1228.80;;;;;;5031755;28;20136;-61
2022/05/02 11:09:48;;;;;;;3.63;1.88;;;614.80;1203.20;;;;;;5031662;28;20546;-56
2022/05/02 11:12:19;;;;;;;3.08;2.30;;;589.20;1203.20;;;;;;5032351;28;20033;-62
2022/05/02 11:15:07;;;;;;;2.67;1.98;;;589.60;1177.60;;;;;;5031961;28;20102;-59
2022/05/02 11:18:08;;;;;;;3.53;2.00;;;614.40;1228.80;;;;;;5031769;28;20092;-55
2022/05/02 11:21:11;;;;;;;2.83;1.83;;;589.70;1203.20;;;;;;5031775;28;20382;-58
2022/05/02 11:24:31;;;;;;;2.47;2.28;;;589.50;1203.20;;;;;;5031889;28;20397;-57
2022/05/02 11:27:27;;;;;;;2.45;1.77;;;589.20;1203.20;;;;;;4951527;29;20514;-60
2022/05/02 11:30:05;;;;;;;2.60;1.80;;;588.90;1203.20;;;;;;4950602;29;20039;-58
2022/05/02 11:33:05;;;;;;;5.25;2.00;;;589.10;1228.80;;;;;;4949678;29;20546;-61
2022/05/02 11:35:33;;;;;;;2.35;1.73;;;588.90;1203.20;;;;;;4932885;29;20043;-58
2022/05/02 11:38:26;;;;;;;5.13;4.32;;;589.30;1177.60;;;;;;4949621;29;20092;-57
2022/05/02 11:40:58;;;;;;;3.20;1.98;;;589.60;1203.20;;;;;;4947291;29;20043;-62
2022/05/02 11:43:25;;;;;;;2.42;1.60;;;589.50;1152.00;;;;;;4949782;29;20079;-58
2022/05/02 11:46:18;;;;;;;3.33;1.92;;;589.70;1177.60;;;;;;4949368;29;20039;-60
2022/05/02 11:49:06;;;;;;;2.60;1.67;;;589.40;1177.60;;;;;;4949653;29;20039;-58
2022/05/02 11:51:43;;;;;;;2.40;1.60;;;589.20;1177.60;;;;;;4947129;29;20110;-57
2022/05/02 11:54:28;;;;;;;2.35;1.75;;;589.50;1177.60;;;;;;4946595;29;20039;-57
2022/05/02 11:57:06;;;;;;;3.25;1.42;;;589.00;1177.60;;;;;;4949315;29;20489;-61
2022/05/02 11:59:51;;;;;;;1.63;1.48;;;588.80;1177.60;;;;;;4950423;28;20544;-61
2022/05/02 12:02:28;;;;;;;1.90;1.50;;;564.10;1177.60;;;;;;5039242;28;20057;-57
2022/05/02 12:04:58;;;;;;;2.90;1.58;;;564.00;1177.60;;;;;;5037492;28;20081;-57
2022/05/02 12:07:31;;;;;;;2.17;1.58;;;588.80;1177.60;;;;;;5036345;28;20119;-57
2022/05/02 12:10:02;;;;;;;;;;;564.00;1177.60;;;;;;5037890;28;20044;-57
2022/05/02 12:12:31;;;;;;;2.28;1.50;;;563.90;1177.60;;;;;;5036841;28;19905;-57
2022/05/02 12:15:04;;;;;;;2.60;1.40;;;563.80;1177.60;;;;;;5037171;28;20078;-56
2022/05/02 12:17:30;;;;;;;1.80;1.40;;;564.10;1177.60;;;;;;5036580;28;20021;-56
2022/05/02 12:19:56;;;;;;;4.63;1.98;;;564.10;1177.60;;;;;;5037704;28;20794;-56
2022/05/02 12:22:26;;;;;;;4.93;1.92;;;564.10;1177.60;;;;;;5035987;28;20025;-59
2022/05/02 12:24:55;;;;;;;2.60;1.90;;;589.00;1177.60;;;;;;5028847;28;20025;-59
2022/05/02 12:27:25;;;;;;;2.72;1.95;;;589.20;1177.60;;;;;;5028812;28;20026;-57
2022/05/02 12:29:58;;;;;;;3.13;1.80;;;589.50;1152.00;;;;;;5028197;28;20091;-59
2022/05/02 12:32:24;;;;;;;;;;;589.70;1152.00;;;;;;5029525;28;20041;-58
2022/05/02 12:34:55;;;;;;;2.35;1.60;;;589.40;1126.40;;;;;;5028688;28;20379;-56
2022/05/02 12:37:27;;;;;;;2.45;1.80;;;589.70;1100.80;;;;;;5028530;28;20055;-60
2022/05/02 12:40:12;;;;;;;2.00;1.58;;;589.70;1126.40;;;;;;5028699;28;20083;-56
2022/05/02 12:42:51;;;;;;;1.77;1.40;;;589.40;1100.80;;;;;;5028180;28;20029;-58
2022/05/02 12:45:22;;;;;;;8.55;2.42;;;589.20;1100.80;;;;;;5028911;28;20044;-59
2022/05/02 12:47:56;;;;;;;4.00;1.92;;;564.10;1126.40;;;;;;5027601;28;20029;-59
2022/05/02 12:50:25;;;;;;;4.32;2.33;;;588.90;1126.40;;;;;;5028424;28;20033;-56
2022/05/02 12:52:56;;;;;;;31.98;21.55;;;589.20;1152.00;;;;;;5028376;28;20036;-59
2022/05/02 12:55:23;;;;;;;3.20;2.60;;;589.10;1152.00;;;;;;5027821;28;20029;-58
2022/05/02 13:00:41;;;;;;;3.00;1.98;;;589.10;1126.40;;;;;;5028981;28;20037;-60
2022/05/02 13:03:14;;;;;;;2.67;1.65;;;588.90;1126.40;;;;;;5028650;28;20601;-59
2022/05/02 13:05:52;;;;;;;3.80;1.55;;;589.10;1152.00;;;;;;5028104;28;20422;-63
2022/05/02 13:08:43;;;;;;;3.15;2.10;;;588.90;1152.00;;;;;;5030153;28;20398;-58
2022/05/02 13:11:36;;;;;;;2.78;1.70;;;588.80;1177.60;;;;;;5032515;28;20049;-59
2022/05/02 13:14:03;;;;;;;18.27;13.17;;;588.90;1152.00;;;;;;5028153;28;20036;-58
2022/05/02 13:16:49;;;;;;;3.88;2.75;;;589.00;1177.60;;;;;;5028241;28;20025;-58
2022/05/02 13:19:16;;;;;;;3.08;2.10;;;588.90;1152.00;;;;;;5028405;28;20439;-57
2022/05/02 13:21:42;;;;;;;2.50;1.83;;;563.90;1152.00;;;;;;5027711;28;20487;-61
2022/05/02 13:24:12;;;;;;;2.50;1.77;;;563.80;1177.60;;;;;;5028090;28;20109;-57
2022/05/02 13:27:03;;;;;;;2.38;1.60;;;564.00;1177.60;;;;;;5028348;28;20033;-57